MSC Barcelona — A8ZU9 — position and weather

sailwx.info

Track history (hours):
 
Tides and Currents Weather Stations Pressure Air Temp Water Temp Dewpoint Dewpoint Depression Visibility Wind Speed Wind Dir Waves Ship Positions

MSC Barcelona

Last reported at 2017-Oct-16 15:36 UTC. Time now 2017-Oct-16 22:29 UTC.
Position S 23°55' W 046°21'.

Length 270 m; draft 9.4 m.

Type: Ship (hazmat cat A). MMSI: 636092269.

Date/timePositionNaut miles runAvg speedWind from/ knotsBaromVisibWave heightAir tempDewpointWater temp
2017-Oct-16 15:36S 23°55' W 046°21'0 2.9
2017-Oct-16 15:29S 23°55' W 046°21'3 6.6
2017-Oct-16 15:00S 23°58' W 046°18'3 5.8
2017-Oct-16 14:30S 23°60' W 046°20'8 8.0
2017-Oct-16 13:30S 24°08' W 046°20'0 0.6
2017-Oct-16 13:00S 24°08' W 046°20'0 0.0
2017-Oct-16 12:27S 24°08' W 046°20'0 0.0
2017-Oct-16 12:00S 24°08' W 046°20'0 0.0
2017-Oct-16 11:24S 24°08' W 046°20'0 0.0
2017-Oct-16 11:00S 24°08' W 046°20'0 0.0
2017-Oct-16 10:27S 24°08' W 046°20'0 0.0
2017-Oct-16 10:00S 24°08' W 046°20'0 0.0
2017-Oct-16 09:30S 24°08' W 046°20'0 0.0
2017-Oct-16 09:00S 24°08' W 046°20'0 0.0
2017-Oct-16 08:24S 24°08' W 046°20'0 0.0
2017-Oct-16 07:54S 24°08' W 046°20'0 0.3
2017-Oct-16 07:30S 24°08' W 046°20'4 7.7
2017-Oct-16 07:00S 24°11' W 046°23'917.3
2017-Oct-16 06:30S 24°19' W 046°27'918.8
2017-Oct-16 06:01S 24°28' W 046°29'918.4
2017-Oct-16 05:30S 24°36' W 046°33'918.6
2017-Oct-16 05:01S 24°45' W 046°38'9518.9
2017-Oct-16 00:00S 26°12' W 047°18'   090 / 131024.010.8 21.014.719.0
2017-Oct-10 09:00S 34°18' W 053°18'63821.3 240 / 91014.210.8 16.0
2017-Oct-09 03:00S 25°15' W 046°53'2121.1
2017-Oct-09 02:00S 24°56' W 046°43'1121.4
2017-Oct-09 01:30S 24°46' W 046°38'1121.4
2017-Oct-09 01:00S 24°36' W 046°33'1121.6
2017-Oct-09 00:30S 24°26' W 046°29'1121.8
2017-Oct-09 00:00S 24°16' W 046°25'917.8
2017-Oct-08 23:30S 24°07' W 046°23'612.3
2017-Oct-08 23:00S 24°01' W 046°21'4 7.9
2017-Oct-08 22:30S 23°59' W 046°17'5 0.6
2017-Oct-08 14:44S 23°55' W 046°21'0 0.0
2017-Oct-08 14:17S 23°55' W 046°21'0 0.0
2017-Oct-08 13:59S 23°55' W 046°21'0 0.0
2017-Oct-08 13:26S 23°55' W 046°21'0 0.0
2017-Oct-08 12:38S 23°55' W 046°21'0 0.0
2017-Oct-08 12:29S 23°55' W 046°21'0 0.0
2017-Oct-08 11:35S 23°55' W 046°21'0 0.0
2017-Oct-08 11:23S 23°55' W 046°21'0 0.0
2017-Oct-08 10:56S 23°55' W 046°21'0 0.0
2017-Oct-08 10:29S 23°55' W 046°21'0 0.0
2017-Oct-08 09:53S 23°55' W 046°21'0 0.0
2017-Oct-08 09:29S 23°55' W 046°21'0 0.0
2017-Oct-08 08:59S 23°55' W 046°21'0 0.0
2017-Oct-08 08:29S 23°55' W 046°21'0 0.0
2017-Oct-08 07:53S 23°55' W 046°21'0 0.0
2017-Oct-08 07:26S 23°55' W 046°21'0 0.0
2017-Oct-08 06:26S 23°55' W 046°21'0 0.0
2017-Oct-08 05:53S 23°55' W 046°21'0 0.0
2017-Oct-08 05:14S 23°55' W 046°21'0 0.0
2017-Oct-08 04:59S 23°55' W 046°21'0 0.0
2017-Oct-07 23:03S 23°55' W 046°21'0 0.0
2017-Oct-07 22:51S 23°55' W 046°21'0 0.9
2017-Oct-07 22:30S 23°55' W 046°21'3 6.8
2017-Oct-07 22:00S 23°58' W 046°18'3 5.7
2017-Oct-07 21:30S 23°60' W 046°20'3 6.7
2017-Oct-07 21:00S 24°03' W 046°19'4 8.2
2017-Oct-07 20:30S 24°06' W 046°15'0 0.4
2017-Oct-07 19:58S 24°06' W 046°15'0 0.1
2017-Oct-07 19:22S 24°06' W 046°15'0 0.0
2017-Oct-07 18:55S 24°06' W 046°15'  
Track history (hours):
 
Tides and Currents Weather Stations Pressure Air Temp Water Temp Dewpoint Dewpoint Depression Visibility Wind Speed Wind Dir Waves Ship Positions

MSC Barcelona

Last reported at 2017-Oct-16 15:36 UTC. Time now 2017-Oct-16 22:29 UTC.
Position S 23°55' W 046°21'.

Length 270 m; draft 9.4 m.

Type: Ship (hazmat cat A). MMSI: 636092269.

Date/timePositionNaut miles runAvg speedWind from/ knotsBaromVisibWave heightAir tempDewpointWater temp
2017-Oct-16 15:36S 23°55' W 046°21'0 2.9
2017-Oct-16 15:29S 23°55' W 046°21'3 6.6
2017-Oct-16 15:00S 23°58' W 046°18'3 5.8
2017-Oct-16 14:30S 23°60' W 046°20'8 8.0
2017-Oct-16 13:30S 24°08' W 046°20'0 0.6
2017-Oct-16 13:00S 24°08' W 046°20'0 0.0
2017-Oct-16 12:27S 24°08' W 046°20'0 0.0
2017-Oct-16 12:00S 24°08' W 046°20'0 0.0
2017-Oct-16 11:24S 24°08' W 046°20'0 0.0
2017-Oct-16 11:00S 24°08' W 046°20'0 0.0
2017-Oct-16 10:27S 24°08' W 046°20'0 0.0
2017-Oct-16 10:00S 24°08' W 046°20'0 0.0
2017-Oct-16 09:30S 24°08' W 046°20'0 0.0
2017-Oct-16 09:00S 24°08' W 046°20'0 0.0
2017-Oct-16 08:24S 24°08' W 046°20'0 0.0
2017-Oct-16 07:54S 24°08' W 046°20'0 0.3
2017-Oct-16 07:30S 24°08' W 046°20'4 7.7
2017-Oct-16 07:00S 24°11' W 046°23'917.3
2017-Oct-16 06:30S 24°19' W 046°27'918.8
2017-Oct-16 06:01S 24°28' W 046°29'918.4
2017-Oct-16 05:30S 24°36' W 046°33'918.6
2017-Oct-16 05:01S 24°45' W 046°38'9518.9
2017-Oct-16 00:00S 26°12' W 047°18'   090 / 131024.010.8 21.014.719.0
2017-Oct-10 09:00S 34°18' W 053°18'63821.3 240 / 91014.210.8 16.0
2017-Oct-09 03:00S 25°15' W 046°53'2121.1
2017-Oct-09 02:00S 24°56' W 046°43'1121.4
2017-Oct-09 01:30S 24°46' W 046°38'1121.4
2017-Oct-09 01:00S 24°36' W 046°33'1121.6
2017-Oct-09 00:30S 24°26' W 046°29'1121.8
2017-Oct-09 00:00S 24°16' W 046°25'917.8
2017-Oct-08 23:30S 24°07' W 046°23'612.3
2017-Oct-08 23:00S 24°01' W 046°21'4 7.9
2017-Oct-08 22:30S 23°59' W 046°17'5 0.6
2017-Oct-08 14:44S 23°55' W 046°21'0 0.0
2017-Oct-08 14:17S 23°55' W 046°21'0 0.0
2017-Oct-08 13:59S 23°55' W 046°21'0 0.0
2017-Oct-08 13:26S 23°55' W 046°21'0 0.0
2017-Oct-08 12:38S 23°55' W 046°21'0 0.0
2017-Oct-08 12:29S 23°55' W 046°21'0 0.0
2017-Oct-08 11:35S 23°55' W 046°21'0 0.0
2017-Oct-08 11:23S 23°55' W 046°21'0 0.0
2017-Oct-08 10:56S 23°55' W 046°21'0 0.0
2017-Oct-08 10:29S 23°55' W 046°21'0 0.0
2017-Oct-08 09:53S 23°55' W 046°21'0 0.0
2017-Oct-08 09:29S 23°55' W 046°21'0 0.0
2017-Oct-08 08:59S 23°55' W 046°21'0 0.0
2017-Oct-08 08:29S 23°55' W 046°21'0 0.0
2017-Oct-08 07:53S 23°55' W 046°21'0 0.0
2017-Oct-08 07:26S 23°55' W 046°21'0 0.0
2017-Oct-08 06:26S 23°55' W 046°21'0 0.0
2017-Oct-08 05:53S 23°55' W 046°21'0 0.0
2017-Oct-08 05:14S 23°55' W 046°21'0 0.0
2017-Oct-08 04:59S 23°55' W 046°21'0 0.0
2017-Oct-07 23:03S 23°55' W 046°21'0 0.0
2017-Oct-07 22:51S 23°55' W 046°21'0 0.9
2017-Oct-07 22:30S 23°55' W 046°21'3 6.8
2017-Oct-07 22:00S 23°58' W 046°18'3 5.7
2017-Oct-07 21:30S 23°60' W 046°20'3 6.7
2017-Oct-07 21:00S 24°03' W 046°19'4 8.2
2017-Oct-07 20:30S 24°06' W 046°15'0 0.4
2017-Oct-07 19:58S 24°06' W 046°15'0 0.1
2017-Oct-07 19:22S 24°06' W 046°15'0 0.0
2017-Oct-07 18:55S 24°06' W 046°15'  

Dump ship's entire track history